Historyczne dane pomiarowe

Dodano dane terminowe – wersja testowa.

Dane z okresu 1951-2018

Wersja bazy: 1.27 [2018-11-28, lista zmian], aktualizacja planowana na 2018-12-07

Dane meteo z obszaru Polski uzyskane na podstawie danych udostępnionych przez Instytut Meteorologii i Gospodarki Wodnej – Państwowy Instytut Badawczy.

 

Wybierz Datę:    

       

TemperaturaWilgotnośćWiatrCiśnienieOpadyŚniegCzas trwania zjawisk
 Stacja t tx tn tng RH VA  wxwx mslp ppp RRR   cm mm wxwxwxwxwxwxwx
1960-11-08 4.2 5.7 3.6 1.0 88.5- 7.7 3.0---- 0.0------------
1960-11-09 2.3 5.5 0.3 -1.9 96.0- 6.3 1.0---- 0.0------------
1960-11-10 3.6 8.0 1.8 0.1 90.0- 4.7 2.7---- 0.0------------
1960-11-11 2.8 9.9 -2.7 -4.8 90.3- 0.0 2.0---- 0.0------------
1960-11-12 3.5 5.8 -1.9 -4.3 97.8- 6.7 2.0---- 0.5------------
1960-11-13 9.4 14.6 4.4 2.0 83.3- 5.7 4.0---- 2.9------------
1960-11-14 6.6 8.2 5.6 4.8 93.8- 8.0 2.0---- 0.5------------
1960-11-15 2.4 7.0 -0.6 -1.1 96.0- 4.7 2.3---- 0.0------------
1960-11-16 4.9 6.9 -2.9 -6.1 92.3- 7.3 3.0---- 3.3------------
1960-11-17 2.9 6.6 -0.5 3.9 93.8- 7.3 1.7---- 0.0------------
1960-11-18 3.1 5.8 -1.9 -6.6 93.3- 7.7 3.7---- 1.7------------
1960-11-19 4.5 8.1 0.6 -1.6 89.8- 6.3 3.0---- 16.1------------
1960-11-20 4.3 5.6 1.6 3.0 91.0- 8.0 4.3---- 0.8------------
1960-11-21 1.2 4.7 -0.9 -3.4 93.3- 4.0 2.0---- 0.0------------
1960-11-22 1.5 6.2 -1.5 -5.5 92.0- 4.0 3.0---- 0.0------------
1960-11-23 3.2 8.4 0.4 -2.9 89.8- 3.3 2.0---- 0.0------------
1960-11-24 3.8 5.7 0.8 -2.2 90.5- 7.3 1.0---- 0.0------------
1960-11-25 4.6 8.6 1.3 -1.7 88.5- 4.3 3.7---- 0.4------------
1960-11-26 7.8 11.5 2.5 -2.3 85.0- 7.0 7.0---- 0.2------------
1960-11-27 8.5 10.2 6.7 4.1 79.5- 7.0 7.0---- 1.1------------
1960-11-28 4.4 9.3 1.0 4.5 91.3- 8.0 5.0---- 0.5------------
1960-11-29 2.5 4.6 -0.4 -2.3 84.3- 7.0 4.0---- 0.0------------
1960-11-30 4.0 5.4 1.7 0.4 89.5- 7.7 5.3---- 2.1------------
1960-12-01 4.7 10.4 2.3 1.7 76.5- 1.3 5.7---- 0.0------------
1960-12-02 1.5 8.6 -1.3 -7.3 81.5- 1.7 2.7---- 0.0------------
1960-12-03 2.2 4.5 -1.4 -5.1 86.5- 6.0 7.0---- 1.2------------
1960-12-04 9.9 13.1 2.2 -0.6 54.3- 7.7 12.7---- 2.6------------
1960-12-05 7.5 12.2 4.7 7.6 73.0- 7.7 6.7---- 0.0------------
1960-12-06 9.8 12.1 2.8 -1.1 73.0- 8.0 3.3---- 0.0------------
1960-12-07 10.9 13.9 5.6 0.2 59.5- 7.3 5.3---- 0.2------------
183.3 ms

 

Źródłem pochodzenia danych jest Instytut Meteorologii i Gospodarki Wodnej – Państwowy Instytut Badawczy. Dane Instytutu Meteorologii i Gospodarki Wodnej – Państwowego Instytutu Badawczego zostały przetworzone.

Dane źródłowe można odnaleźć na stronie https://dane.imgw.pl